sensor_id;sensor_type;location;lat;lon;timestamp;P1;durP1;ratioP1;P2;durP2;ratioP2
46607;SDS011;32330;51.936;7.184;2022-11-20T03:19:23;15.88;;;11.45;;
46607;SDS011;32330;51.936;7.184;2022-11-20T03:21:50;13.93;;;10.85;;
46607;SDS011;32330;51.936;7.184;2022-11-20T03:24:17;16.35;;;11.88;;
46607;SDS011;32330;51.936;7.184;2022-11-20T03:26:44;14.43;;;10.15;;
46607;SDS011;32330;51.936;7.184;2022-11-20T03:29:11;16.30;;;11.63;;
46607;SDS011;32330;51.936;7.184;2022-11-20T03:31:39;15.45;;;10.90;;
46607;SDS011;32330;51.936;7.184;2022-11-20T03:34:08;16.15;;;10.90;;
46607;SDS011;32330;51.936;7.184;2022-11-20T03:36:37;16.38;;;12.25;;
46607;SDS011;32330;51.936;7.184;2022-11-20T03:39:04;15.23;;;11.30;;
46607;SDS011;32330;51.936;7.184;2022-11-20T03:41:35;16.13;;;12.02;;
46607;SDS011;32330;51.936;7.184;2022-11-20T03:46:56;14.38;;;10.63;;
46607;SDS011;32330;51.936;7.184;2022-11-20T03:49:24;14.38;;;10.48;;
46607;SDS011;32330;51.936;7.184;2022-11-20T03:51:51;15.05;;;11.52;;
46607;SDS011;32330;51.936;7.184;2022-11-20T03:54:18;15.55;;;11.15;;
46607;SDS011;32330;51.936;7.184;2022-11-20T03:56:44;14.82;;;10.63;;
46607;SDS011;32330;51.936;7.184;2022-11-20T03:59:11;15.98;;;10.35;;
46607;SDS011;32330;51.936;7.184;2022-11-20T04:01:39;15.10;;;11.32;;
46607;SDS011;32330;51.936;7.184;2022-11-20T04:04:06;13.30;;;11.27;;
46607;SDS011;32330;51.936;7.184;2022-11-20T04:06:35;13.48;;;10.55;;
46607;SDS011;32330;51.936;7.184;2022-11-20T04:09:03;13.02;;;10.10;;
46607;SDS011;32330;51.936;7.184;2022-11-20T04:11:32;13.63;;;10.65;;
46607;SDS011;32330;51.936;7.184;2022-11-20T04:14:01;14.20;;;11.07;;
46607;SDS011;32330;51.936;7.184;2022-11-20T04:16:29;14.18;;;10.07;;
46607;SDS011;32330;51.936;7.184;2022-11-20T04:18:58;14.90;;;11.38;;
46607;SDS011;32330;51.936;7.184;2022-11-20T04:21:27;16.42;;;11.90;;
46607;SDS011;32330;51.936;7.184;2022-11-20T04:23:56;14.68;;;11.30;;
46607;SDS011;32330;51.936;7.184;2022-11-20T04:26:24;17.50;;;12.60;;
46607;SDS011;32330;51.936;7.184;2022-11-20T04:28:52;16.45;;;12.27;;
46607;SDS011;32330;51.936;7.184;2022-11-20T04:31:20;16.63;;;12.60;;
46607;SDS011;32330;51.936;7.184;2022-11-20T04:33:48;15.75;;;11.50;;
46607;SDS011;32330;51.936;7.184;2022-11-20T04:36:16;14.95;;;11.38;;
46607;SDS011;32330;51.936;7.184;2022-11-20T04:38:44;19.15;;;13.15;;
46607;SDS011;32330;51.936;7.184;2022-11-20T04:41:15;18.02;;;13.05;;
46607;SDS011;32330;51.936;7.184;2022-11-20T04:43:46;17.13;;;13.38;;
46607;SDS011;32330;51.936;7.184;2022-11-20T04:46:14;17.93;;;12.27;;
46607;SDS011;32330;51.936;7.184;2022-11-20T04:48:41;16.40;;;11.77;;
46607;SDS011;32330;51.936;7.184;2022-11-20T04:51:08;14.63;;;11.32;;
46607;SDS011;32330;51.936;7.184;2022-11-20T04:53:35;17.17;;;12.68;;
46607;SDS011;32330;51.936;7.184;2022-11-20T04:56:02;17.77;;;11.20;;
46607;SDS011;32330;51.936;7.184;2022-11-20T04:58:32;15.90;;;12.15;;
46607;SDS011;32330;51.936;7.184;2022-11-20T05:01:02;17.30;;;11.73;;
46607;SDS011;32330;51.936;7.184;2022-11-20T05:03:29;15.73;;;11.45;;
46607;SDS011;32330;51.936;7.184;2022-11-20T05:05:59;16.45;;;11.77;;
46607;SDS011;32330;51.936;7.184;2022-11-20T05:08:27;13.50;;;10.73;;
46607;SDS011;32330;51.936;7.184;2022-11-20T05:10:58;14.43;;;10.85;;
46607;SDS011;32330;51.936;7.184;2022-11-20T05:13:26;16.17;;;11.65;;
46607;SDS011;32330;51.936;7.184;2022-11-20T05:15:54;15.95;;;11.88;;
46607;SDS011;32330;51.936;7.184;2022-11-20T05:18:21;17.02;;;11.95;;
46607;SDS011;32330;51.936;7.184;2022-11-20T05:20:54;17.40;;;12.15;;
46607;SDS011;32330;51.936;7.184;2022-11-20T05:23:21;14.27;;;11.32;;
46607;SDS011;32330;51.936;7.184;2022-11-20T05:25:51;15.65;;;12.65;;
46607;SDS011;32330;51.936;7.184;2022-11-20T05:28:18;17.58;;;11.70;;
46607;SDS011;32330;51.936;7.184;2022-11-20T05:30:45;16.40;;;12.20;;
46607;SDS011;32330;51.936;7.184;2022-11-20T05:33:14;16.20;;;12.50;;
46607;SDS011;32330;51.936;7.184;2022-11-20T05:35:41;16.55;;;12.40;;
46607;SDS011;32330;51.936;7.184;2022-11-20T05:38:08;16.05;;;11.43;;
46607;SDS011;32330;51.936;7.184;2022-11-20T05:40:35;17.02;;;12.20;;
46607;SDS011;32330;51.936;7.184;2022-11-20T05:43:02;15.43;;;12.02;;
46607;SDS011;32330;51.936;7.184;2022-11-20T05:45:29;17.77;;;12.73;;
46607;SDS011;32330;51.936;7.184;2022-11-20T05:47:57;19.55;;;12.70;;
46607;SDS011;32330;51.936;7.184;2022-11-20T05:50:26;16.23;;;12.43;;
46607;SDS011;32330;51.936;7.184;2022-11-20T05:52:53;14.68;;;11.80;;
46607;SDS011;32330;51.936;7.184;2022-11-20T05:55:20;15.48;;;13.15;;
46607;SDS011;32330;51.936;7.184;2022-11-20T05:57:47;17.42;;;12.85;;
46607;SDS011;32330;51.936;7.184;2022-11-20T06:00:14;16.90;;;12.48;;
46607;SDS011;32330;51.936;7.184;2022-11-20T06:02:42;16.20;;;12.57;;
46607;SDS011;32330;51.936;7.184;2022-11-20T06:05:09;19.85;;;13.52;;
46607;SDS011;32330;51.936;7.184;2022-11-20T06:07:37;19.67;;;13.50;;
46607;SDS011;32330;51.936;7.184;2022-11-20T06:10:04;17.50;;;12.43;;
46607;SDS011;32330;51.936;7.184;2022-11-20T06:12:31;17.58;;;13.32;;
46607;SDS011;32330;51.936;7.184;2022-11-20T06:14:58;17.48;;;13.57;;
46607;SDS011;32330;51.936;7.184;2022-11-20T06:17:26;20.83;;;14.50;;
46607;SDS011;32330;51.936;7.184;2022-11-20T06:19:53;16.83;;;12.77;;
46607;SDS011;32330;51.936;7.184;2022-11-20T06:22:20;16.60;;;12.77;;
46607;SDS011;32330;51.936;7.184;2022-11-20T06:24:48;16.95;;;12.75;;
46607;SDS011;32330;51.936;7.184;2022-11-20T06:27:15;19.05;;;14.02;;
46607;SDS011;32330;51.936;7.184;2022-11-20T06:29:42;18.48;;;13.48;;
46607;SDS011;32330;51.936;7.184;2022-11-20T06:32:11;17.65;;;13.60;;
46607;SDS011;32330;51.936;7.184;2022-11-20T06:34:38;17.10;;;13.63;;
46607;SDS011;32330;51.936;7.184;2022-11-20T06:37:06;21.15;;;14.25;;
46607;SDS011;32330;51.936;7.184;2022-11-20T06:39:33;18.80;;;14.38;;
46607;SDS011;32330;51.936;7.184;2022-11-20T06:42:02;17.08;;;12.75;;
46607;SDS011;32330;51.936;7.184;2022-11-20T06:44:29;19.55;;;13.73;;
46607;SDS011;32330;51.936;7.184;2022-11-20T06:46:55;19.08;;;13.68;;
46607;SDS011;32330;51.936;7.184;2022-11-20T06:49:22;18.40;;;13.30;;
46607;SDS011;32330;51.936;7.184;2022-11-20T06:51:50;17.27;;;12.90;;
46607;SDS011;32330;51.936;7.184;2022-11-20T06:54:17;21.95;;;15.45;;
46607;SDS011;32330;51.936;7.184;2022-11-20T06:56:46;42.15;;;26.27;;
46607;SDS011;32330;51.936;7.184;2022-11-20T06:59:14;49.95;;;30.27;;
46607;SDS011;32330;51.936;7.184;2022-11-20T07:01:41;42.22;;;26.88;;
46607;SDS011;32330;51.936;7.184;2022-11-20T07:04:08;28.75;;;19.38;;
46607;SDS011;32330;51.936;7.184;2022-11-20T07:06:35;27.75;;;18.42;;
46607;SDS011;32330;51.936;7.184;2022-11-20T07:09:02;33.30;;;22.40;;
46607;SDS011;32330;51.936;7.184;2022-11-20T07:11:29;36.13;;;23.90;;
46607;SDS011;32330;51.936;7.184;2022-11-20T07:13:56;37.97;;;23.38;;
46607;SDS011;32330;51.936;7.184;2022-11-20T07:16:25;25.60;;;18.25;;
46607;SDS011;32330;51.936;7.184;2022-11-20T07:18:52;19.60;;;14.00;;
46607;SDS011;32330;51.936;7.184;2022-11-20T07:21:19;21.02;;;14.40;;
46607;SDS011;32330;51.936;7.184;2022-11-20T07:23:46;18.75;;;14.48;;
46607;SDS011;32330;51.936;7.184;2022-11-20T07:26:13;22.60;;;15.50;;
46607;SDS011;32330;51.936;7.184;2022-11-20T07:28:40;24.20;;;17.98;;
46607;SDS011;32330;51.936;7.184;2022-11-20T07:31:09;24.30;;;17.83;;
46607;SDS011;32330;51.936;7.184;2022-11-20T07:33:39;20.50;;;15.68;;
46607;SDS011;32330;51.936;7.184;2022-11-20T07:36:06;22.05;;;17.42;;
46607;SDS011;32330;51.936;7.184;2022-11-20T07:38:36;21.92;;;16.83;;
46607;SDS011;32330;51.936;7.184;2022-11-20T07:41:04;22.83;;;16.98;;
46607;SDS011;32330;51.936;7.184;2022-11-20T07:43:31;17.70;;;13.73;;
46607;SDS011;32330;51.936;7.184;2022-11-20T07:45:58;21.05;;;14.43;;
46607;SDS011;32330;51.936;7.184;2022-11-20T07:48:25;21.35;;;16.90;;
46607;SDS011;32330;51.936;7.184;2022-11-20T07:50:54;21.38;;;16.13;;
46607;SDS011;32330;51.936;7.184;2022-11-20T07:53:21;25.58;;;17.20;;
46607;SDS011;32330;51.936;7.184;2022-11-20T07:55:48;26.63;;;18.05;;
46607;SDS011;32330;51.936;7.184;2022-11-20T07:58:17;23.50;;;17.90;;
46607;SDS011;32330;51.936;7.184;2022-11-20T08:00:44;27.50;;;19.38;;
46607;SDS011;32330;51.936;7.184;2022-11-20T08:03:11;27.13;;;20.55;;
46607;SDS011;32330;51.936;7.184;2022-11-20T08:05:38;28.33;;;20.33;;
46607;SDS011;32330;51.936;7.184;2022-11-20T08:08:06;28.65;;;18.20;;
46607;SDS011;32330;51.936;7.184;2022-11-20T08:10:33;30.95;;;20.70;;
46607;SDS011;32330;51.936;7.184;2022-11-20T08:15:41;35.30;;;23.50;;
46607;SDS011;32330;51.936;7.184;2022-11-20T08:18:13;39.30;;;23.95;;
46607;SDS011;32330;51.936;7.184;2022-11-20T08:20:42;41.47;;;26.67;;
46607;SDS011;32330;51.936;7.184;2022-11-20T08:23:11;41.30;;;29.58;;
46607;SDS011;32330;51.936;7.184;2022-11-20T08:25:38;41.00;;;29.38;;
46607;SDS011;32330;51.936;7.184;2022-11-20T08:28:06;54.95;;;33.22;;
46607;SDS011;32330;51.936;7.184;2022-11-20T08:30:35;39.70;;;27.67;;
46607;SDS011;32330;51.936;7.184;2022-11-20T08:33:04;43.83;;;27.95;;
46607;SDS011;32330;51.936;7.184;2022-11-20T08:35:33;44.42;;;30.55;;
46607;SDS011;32330;51.936;7.184;2022-11-20T08:38:01;44.05;;;29.70;;
46607;SDS011;32330;51.936;7.184;2022-11-20T08:40:29;44.78;;;28.90;;
46607;SDS011;32330;51.936;7.184;2022-11-20T08:42:56;43.67;;;29.98;;
46607;SDS011;32330;51.936;7.184;2022-11-20T08:45:24;48.08;;;30.45;;
46607;SDS011;32330;51.936;7.184;2022-11-20T08:47:51;45.00;;;29.20;;
46607;SDS011;32330;51.936;7.184;2022-11-20T08:50:18;43.38;;;29.02;;
46607;SDS011;32330;51.936;7.184;2022-11-20T08:52:45;38.85;;;26.80;;
46607;SDS011;32330;51.936;7.184;2022-11-20T08:55:12;45.80;;;27.50;;
46607;SDS011;32330;51.936;7.184;2022-11-20T08:57:40;46.80;;;25.85;;
46607;SDS011;32330;51.936;7.184;2022-11-20T09:00:09;45.10;;;23.60;;
46607;SDS011;32330;51.936;7.184;2022-11-20T09:02:37;42.50;;;23.58;;
46607;SDS011;32330;51.936;7.184;2022-11-20T09:05:04;46.25;;;23.42;;
46607;SDS011;32330;51.936;7.184;2022-11-20T09:07:31;50.55;;;25.45;;
46607;SDS011;32330;51.936;7.184;2022-11-20T09:09:58;51.47;;;25.10;;
46607;SDS011;32330;51.936;7.184;2022-11-20T09:12:25;45.63;;;26.52;;
46607;SDS011;32330;51.936;7.184;2022-11-20T09:14:54;50.13;;;25.77;;
46607;SDS011;32330;51.936;7.184;2022-11-20T09:17:21;41.83;;;24.60;;
46607;SDS011;32330;51.936;7.184;2022-11-20T09:19:47;49.40;;;25.15;;
46607;SDS011;32330;51.936;7.184;2022-11-20T09:22:14;53.92;;;26.58;;
46607;SDS011;32330;51.936;7.184;2022-11-20T09:24:41;46.55;;;24.20;;
46607;SDS011;32330;51.936;7.184;2022-11-20T09:27:08;44.42;;;24.58;;
46607;SDS011;32330;51.936;7.184;2022-11-20T09:29:35;50.40;;;24.23;;
46607;SDS011;32330;51.936;7.184;2022-11-20T09:32:03;42.72;;;22.05;;
46607;SDS011;32330;51.936;7.184;2022-11-20T09:34:31;42.05;;;24.52;;
46607;SDS011;32330;51.936;7.184;2022-11-20T09:36:58;40.58;;;22.23;;
46607;SDS011;32330;51.936;7.184;2022-11-20T09:39:25;48.10;;;23.80;;
46607;SDS011;32330;51.936;7.184;2022-11-20T09:42:02;56.83;;;25.50;;
46607;SDS011;32330;51.936;7.184;2022-11-20T09:44:55;60.30;;;27.42;;
46607;SDS011;32330;51.936;7.184;2022-11-20T09:47:41;55.67;;;26.20;;
46607;SDS011;32330;51.936;7.184;2022-11-20T09:50:23;50.83;;;26.10;;
46607;SDS011;32330;51.936;7.184;2022-11-20T09:52:57;55.53;;;26.77;;
46607;SDS011;32330;51.936;7.184;2022-11-20T09:55:37;51.03;;;26.40;;
46607;SDS011;32330;51.936;7.184;2022-11-20T09:58:05;53.63;;;30.17;;
46607;SDS011;32330;51.936;7.184;2022-11-20T10:00:34;60.20;;;28.58;;
46607;SDS011;32330;51.936;7.184;2022-11-20T10:03:06;45.97;;;25.05;;
46607;SDS011;32330;51.936;7.184;2022-11-20T10:05:40;50.92;;;26.35;;
46607;SDS011;32330;51.936;7.184;2022-11-20T10:08:15;47.58;;;24.95;;
46607;SDS011;32330;51.936;7.184;2022-11-20T10:10:46;43.33;;;24.80;;
46607;SDS011;32330;51.936;7.184;2022-11-20T10:13:19;52.75;;;28.08;;
46607;SDS011;32330;51.936;7.184;2022-11-20T10:15:57;49.03;;;26.25;;
46607;SDS011;32330;51.936;7.184;2022-11-20T10:18:39;48.10;;;26.90;;
46607;SDS011;32330;51.936;7.184;2022-11-20T10:21:15;63.40;;;28.13;;
46607;SDS011;32330;51.936;7.184;2022-11-20T10:26:51;58.03;;;30.20;;
46607;SDS011;32330;51.936;7.184;2022-11-20T10:29:32;57.42;;;30.05;;
46607;SDS011;32330;51.936;7.184;2022-11-20T10:32:01;56.92;;;31.10;;
46607;SDS011;32330;51.936;7.184;2022-11-20T10:34:33;60.30;;;31.33;;
46607;SDS011;32330;51.936;7.184;2022-11-20T10:37:11;53.53;;;29.50;;
46607;SDS011;32330;51.936;7.184;2022-11-20T10:39:42;54.20;;;29.60;;
46607;SDS011;32330;51.936;7.184;2022-11-20T10:42:16;46.25;;;28.15;;
46607;SDS011;32330;51.936;7.184;2022-11-20T10:44:51;42.88;;;24.77;;
46607;SDS011;32330;51.936;7.184;2022-11-20T10:47:27;40.03;;;25.80;;
46607;SDS011;32330;51.936;7.184;2022-11-20T10:50:00;40.78;;;25.70;;
46607;SDS011;32330;51.936;7.184;2022-11-20T10:52:32;42.70;;;26.50;;
46607;SDS011;32330;51.936;7.184;2022-11-20T10:55:10;42.50;;;26.20;;
46607;SDS011;32330;51.936;7.184;2022-11-20T10:57:49;59.50;;;37.83;;
46607;SDS011;32330;51.936;7.184;2022-11-20T11:00:20;49.88;;;33.85;;
46607;SDS011;32330;51.936;7.184;2022-11-20T11:02:48;44.15;;;32.28;;
46607;SDS011;32330;51.936;7.184;2022-11-20T11:05:24;39.05;;;28.48;;
46607;SDS011;32330;51.936;7.184;2022-11-20T11:07:58;38.65;;;25.48;;
46607;SDS011;32330;51.936;7.184;2022-11-20T11:10:27;40.33;;;27.63;;
46607;SDS011;32330;51.936;7.184;2022-11-20T11:12:59;35.78;;;25.55;;
46607;SDS011;32330;51.936;7.184;2022-11-20T11:15:27;38.22;;;25.67;;
46607;SDS011;32330;51.936;7.184;2022-11-20T11:17:55;34.55;;;25.42;;
46607;SDS011;32330;51.936;7.184;2022-11-20T11:20:24;41.08;;;29.75;;
46607;SDS011;32330;51.936;7.184;2022-11-20T11:22:52;43.28;;;29.48;;
46607;SDS011;32330;51.936;7.184;2022-11-20T11:25:22;40.25;;;25.83;;
46607;SDS011;32330;51.936;7.184;2022-11-20T11:27:54;34.88;;;24.80;;
46607;SDS011;32330;51.936;7.184;2022-11-20T11:30:23;35.35;;;23.60;;
46607;SDS011;32330;51.936;7.184;2022-11-20T11:33:02;34.28;;;24.80;;
46607;SDS011;32330;51.936;7.184;2022-11-20T11:35:32;34.17;;;24.33;;
46607;SDS011;32330;51.936;7.184;2022-11-20T11:38:03;36.53;;;24.58;;
46607;SDS011;32330;51.936;7.184;2022-11-20T11:40:32;34.40;;;25.17;;
46607;SDS011;32330;51.936;7.184;2022-11-20T11:43:02;35.72;;;25.52;;
46607;SDS011;32330;51.936;7.184;2022-11-20T11:45:53;39.00;;;26.20;;
46607;SDS011;32330;51.936;7.184;2022-11-20T11:48:20;33.45;;;24.95;;
46607;SDS011;32330;51.936;7.184;2022-11-20T11:50:49;34.75;;;23.35;;
46607;SDS011;32330;51.936;7.184;2022-11-20T11:53:17;31.42;;;23.92;;
46607;SDS011;32330;51.936;7.184;2022-11-20T11:55:49;31.75;;;22.77;;
46607;SDS011;32330;51.936;7.184;2022-11-20T11:58:28;34.00;;;21.92;;
46607;SDS011;32330;51.936;7.184;2022-11-20T12:01:08;28.45;;;21.80;;
46607;SDS011;32330;51.936;7.184;2022-11-20T12:03:40;31.33;;;22.90;;
46607;SDS011;32330;51.936;7.184;2022-11-20T12:06:15;28.83;;;22.23;;
46607;SDS011;32330;51.936;7.184;2022-11-20T12:08:44;23.85;;;18.10;;
46607;SDS011;32330;51.936;7.184;2022-11-20T12:11:16;26.38;;;19.27;;
46607;SDS011;32330;51.936;7.184;2022-11-20T12:13:52;27.15;;;19.23;;
46607;SDS011;32330;51.936;7.184;2022-11-20T12:16:21;24.75;;;18.10;;
46607;SDS011;32330;51.936;7.184;2022-11-20T12:18:49;22.85;;;17.08;;
46607;SDS011;32330;51.936;7.184;2022-11-20T12:21:20;21.88;;;16.83;;
46607;SDS011;32330;51.936;7.184;2022-11-20T12:23:59;21.05;;;16.15;;
46607;SDS011;32330;51.936;7.184;2022-11-20T12:26:44;20.33;;;16.20;;
46607;SDS011;32330;51.936;7.184;2022-11-20T12:29:23;23.13;;;17.08;;
46607;SDS011;32330;51.936;7.184;2022-11-20T12:32:06;24.38;;;18.00;;
46607;SDS011;32330;51.936;7.184;2022-11-20T12:34:52;25.58;;;18.42;;
46607;SDS011;32330;51.936;7.184;2022-11-20T12:37:33;22.25;;;16.98;;
46607;SDS011;32330;51.936;7.184;2022-11-20T12:42:46;22.73;;;17.58;;
46607;SDS011;32330;51.936;7.184;2022-11-20T12:45:54;22.05;;;16.63;;
46607;SDS011;32330;51.936;7.184;2022-11-20T12:48:36;21.25;;;16.33;;
46607;SDS011;32330;51.936;7.184;2022-11-20T12:51:16;22.65;;;17.15;;
46607;SDS011;32330;51.936;7.184;2022-11-20T12:53:58;20.38;;;15.77;;
46607;SDS011;32330;51.936;7.184;2022-11-20T12:56:39;20.88;;;15.75;;
46607;SDS011;32330;51.936;7.184;2022-11-20T12:59:15;20.80;;;15.82;;
46607;SDS011;32330;51.936;7.184;2022-11-20T13:01:55;23.70;;;16.50;;
46607;SDS011;32330;51.936;7.184;2022-11-20T13:04:41;21.63;;;17.13;;
46607;SDS011;32330;51.936;7.184;2022-11-20T13:07:15;20.67;;;16.00;;
46607;SDS011;32330;51.936;7.184;2022-11-20T13:09:45;20.92;;;16.77;;
46607;SDS011;32330;51.936;7.184;2022-11-20T13:12:16;19.15;;;15.50;;
46607;SDS011;32330;51.936;7.184;2022-11-20T13:14:51;22.40;;;17.60;;
46607;SDS011;32330;51.936;7.184;2022-11-20T13:17:28;21.45;;;16.30;;
46607;SDS011;32330;51.936;7.184;2022-11-20T13:20:00;22.90;;;17.27;;
46607;SDS011;32330;51.936;7.184;2022-11-20T13:22:42;22.73;;;16.30;;
46607;SDS011;32330;51.936;7.184;2022-11-20T13:25:21;23.15;;;18.05;;
46607;SDS011;32330;51.936;7.184;2022-11-20T13:27:49;23.33;;;16.83;;
46607;SDS011;32330;51.936;7.184;2022-11-20T13:30:17;23.33;;;16.67;;
46607;SDS011;32330;51.936;7.184;2022-11-20T13:32:49;19.63;;;15.70;;
46607;SDS011;32330;51.936;7.184;2022-11-20T13:35:26;26.13;;;18.88;;
46607;SDS011;32330;51.936;7.184;2022-11-20T13:38:00;25.27;;;18.63;;
46607;SDS011;32330;51.936;7.184;2022-11-20T13:40:30;24.95;;;18.20;;
46607;SDS011;32330;51.936;7.184;2022-11-20T13:43:02;21.38;;;15.77;;
46607;SDS011;32330;51.936;7.184;2022-11-20T13:45:42;21.00;;;16.52;;
46607;SDS011;32330;51.936;7.184;2022-11-20T13:48:20;20.05;;;15.93;;
46607;SDS011;32330;51.936;7.184;2022-11-20T13:50:53;23.30;;;16.98;;
46607;SDS011;32330;51.936;7.184;2022-11-20T13:53:31;28.35;;;18.67;;
46607;SDS011;32330;51.936;7.184;2022-11-20T13:56:07;23.13;;;17.52;;
46607;SDS011;32330;51.936;7.184;2022-11-20T13:58:45;26.38;;;18.55;;
46607;SDS011;32330;51.936;7.184;2022-11-20T14:01:24;26.75;;;23.08;;
46607;SDS011;32330;51.936;7.184;2022-11-20T14:03:53;21.33;;;17.63;;
46607;SDS011;32330;51.936;7.184;2022-11-20T14:06:23;21.60;;;16.60;;
46607;SDS011;32330;51.936;7.184;2022-11-20T14:08:53;19.60;;;15.95;;
46607;SDS011;32330;51.936;7.184;2022-11-20T14:11:23;20.70;;;16.52;;
46607;SDS011;32330;51.936;7.184;2022-11-20T14:13:55;20.33;;;17.30;;
46607;SDS011;32330;51.936;7.184;2022-11-20T14:16:23;22.02;;;17.40;;
46607;SDS011;32330;51.936;7.184;2022-11-20T14:18:53;23.08;;;16.52;;
46607;SDS011;32330;51.936;7.184;2022-11-20T14:21:22;22.00;;;16.58;;
46607;SDS011;32330;51.936;7.184;2022-11-20T14:23:52;23.52;;;16.60;;
46607;SDS011;32330;51.936;7.184;2022-11-20T14:26:20;20.45;;;16.05;;
46607;SDS011;32330;51.936;7.184;2022-11-20T14:28:50;22.63;;;17.05;;
46607;SDS011;32330;51.936;7.184;2022-11-20T14:31:21;20.75;;;16.08;;
46607;SDS011;32330;51.936;7.184;2022-11-20T14:33:51;23.48;;;16.75;;
46607;SDS011;32330;51.936;7.184;2022-11-20T14:36:20;23.30;;;17.58;;
46607;SDS011;32330;51.936;7.184;2022-11-20T14:38:48;23.83;;;17.48;;
46607;SDS011;32330;51.936;7.184;2022-11-20T14:41:17;22.05;;;16.77;;
46607;SDS011;32330;51.936;7.184;2022-11-20T14:43:51;23.88;;;16.98;;
46607;SDS011;32330;51.936;7.184;2022-11-20T14:46:22;23.38;;;16.92;;
46607;SDS011;32330;51.936;7.184;2022-11-20T14:48:51;26.08;;;19.08;;
46607;SDS011;32330;51.936;7.184;2022-11-20T14:51:28;26.38;;;19.05;;
46607;SDS011;32330;51.936;7.184;2022-11-20T14:54:07;26.75;;;18.70;;
46607;SDS011;32330;51.936;7.184;2022-11-20T14:56:36;24.80;;;17.77;;
46607;SDS011;32330;51.936;7.184;2022-11-20T14:59:04;25.45;;;18.55;;
46607;SDS011;32330;51.936;7.184;2022-11-20T15:01:32;28.02;;;20.48;;
46607;SDS011;32330;51.936;7.184;2022-11-20T15:04:00;26.30;;;19.35;;
46607;SDS011;32330;51.936;7.184;2022-11-20T15:06:31;26.63;;;19.58;;
46607;SDS011;32330;51.936;7.184;2022-11-20T15:08:58;26.85;;;20.42;;
46607;SDS011;32330;51.936;7.184;2022-11-20T15:11:27;26.70;;;20.88;;
46607;SDS011;32330;51.936;7.184;2022-11-20T15:13:57;30.27;;;21.90;;
46607;SDS011;32330;51.936;7.184;2022-11-20T15:16:29;31.73;;;21.98;;
46607;SDS011;32330;51.936;7.184;2022-11-20T15:18:56;31.77;;;22.77;;
46607;SDS011;32330;51.936;7.184;2022-11-20T15:21:23;29.50;;;21.38;;
46607;SDS011;32330;51.936;7.184;2022-11-20T15:23:51;28.63;;;21.67;;
46607;SDS011;32330;51.936;7.184;2022-11-20T15:26:20;28.05;;;21.38;;
46607;SDS011;32330;51.936;7.184;2022-11-20T15:28:49;30.35;;;21.23;;
46607;SDS011;32330;51.936;7.184;2022-11-20T15:31:17;29.98;;;21.90;;
46607;SDS011;32330;51.936;7.184;2022-11-20T15:33:47;33.60;;;23.58;;
46607;SDS011;32330;51.936;7.184;2022-11-20T15:36:15;30.83;;;22.52;;
46607;SDS011;32330;51.936;7.184;2022-11-20T15:38:42;34.50;;;24.40;;
46607;SDS011;32330;51.936;7.184;2022-11-20T15:45:20;34.20;;;21.75;;
46607;SDS011;32330;51.936;7.184;2022-11-20T15:47:47;33.05;;;23.98;;
46607;SDS011;32330;51.936;7.184;2022-11-20T15:50:16;38.03;;;27.63;;
46607;SDS011;32330;51.936;7.184;2022-11-20T15:52:43;38.40;;;26.48;;
46607;SDS011;32330;51.936;7.184;2022-11-20T15:55:10;32.60;;;23.15;;
46607;SDS011;32330;51.936;7.184;2022-11-20T15:57:37;33.90;;;23.38;;
46607;SDS011;32330;51.936;7.184;2022-11-20T16:00:05;31.55;;;23.25;;
46607;SDS011;32330;51.936;7.184;2022-11-20T16:05:03;29.63;;;22.27;;
46607;SDS011;32330;51.936;7.184;2022-11-20T16:07:31;30.48;;;22.60;;
46607;SDS011;32330;51.936;7.184;2022-11-20T16:09:58;29.10;;;21.88;;
46607;SDS011;32330;51.936;7.184;2022-11-20T16:12:25;31.27;;;22.83;;
46607;SDS011;32330;51.936;7.184;2022-11-20T16:15:11;29.95;;;20.90;;
46607;SDS011;32330;51.936;7.184;2022-11-20T16:17:55;29.20;;;20.70;;
46607;SDS011;32330;51.936;7.184;2022-11-20T16:20:22;27.77;;;21.55;;
46607;SDS011;32330;51.936;7.184;2022-11-20T16:22:50;29.85;;;22.02;;
46607;SDS011;32330;51.936;7.184;2022-11-20T16:25:17;27.48;;;21.08;;
46607;SDS011;32330;51.936;7.184;2022-11-20T16:27:44;29.85;;;22.02;;
46607;SDS011;32330;51.936;7.184;2022-11-20T16:30:11;28.80;;;21.17;;
46607;SDS011;32330;51.936;7.184;2022-11-20T16:32:38;28.38;;;20.58;;
46607;SDS011;32330;51.936;7.184;2022-11-20T16:35:05;27.83;;;22.02;;
46607;SDS011;32330;51.936;7.184;2022-11-20T16:37:33;28.23;;;20.67;;
46607;SDS011;32330;51.936;7.184;2022-11-20T16:40:01;26.70;;;19.83;;
46607;SDS011;32330;51.936;7.184;2022-11-20T16:42:29;29.42;;;20.83;;
46607;SDS011;32330;51.936;7.184;2022-11-20T16:44:59;27.10;;;20.20;;
46607;SDS011;32330;51.936;7.184;2022-11-20T16:47:26;24.95;;;19.20;;
46607;SDS011;32330;51.936;7.184;2022-11-20T16:49:53;25.92;;;20.13;;
46607;SDS011;32330;51.936;7.184;2022-11-20T16:52:20;27.48;;;19.40;;
46607;SDS011;32330;51.936;7.184;2022-11-20T16:54:47;31.27;;;22.17;;
46607;SDS011;32330;51.936;7.184;2022-11-20T16:57:15;29.25;;;22.33;;
46607;SDS011;32330;51.936;7.184;2022-11-20T16:59:42;30.10;;;21.98;;
46607;SDS011;32330;51.936;7.184;2022-11-20T17:05:37;25.52;;;18.95;;
46607;SDS011;32330;51.936;7.184;2022-11-20T17:08:04;25.55;;;19.10;;
46607;SDS011;32330;51.936;7.184;2022-11-20T17:10:31;25.92;;;19.33;;
46607;SDS011;32330;51.936;7.184;2022-11-20T17:12:59;28.27;;;21.08;;
46607;SDS011;32330;51.936;7.184;2022-11-20T17:15:26;40.28;;;26.27;;
46607;SDS011;32330;51.936;7.184;2022-11-20T17:17:54;29.60;;;21.67;;
46607;SDS011;32330;51.936;7.184;2022-11-20T17:20:20;28.17;;;21.50;;
46607;SDS011;32330;51.936;7.184;2022-11-20T17:22:47;30.02;;;20.08;;
46607;SDS011;32330;51.936;7.184;2022-11-20T17:25:14;29.23;;;22.80;;
46607;SDS011;32330;51.936;7.184;2022-11-20T17:27:41;29.40;;;23.30;;
46607;SDS011;32330;51.936;7.184;2022-11-20T17:30:10;30.10;;;22.92;;
46607;SDS011;32330;51.936;7.184;2022-11-20T17:32:37;28.25;;;21.80;;
46607;SDS011;32330;51.936;7.184;2022-11-20T17:35:09;27.52;;;21.67;;
46607;SDS011;32330;51.936;7.184;2022-11-20T17:37:36;27.80;;;20.83;;
46607;SDS011;32330;51.936;7.184;2022-11-20T17:40:03;27.00;;;20.20;;
46607;SDS011;32330;51.936;7.184;2022-11-20T17:42:31;29.52;;;20.98;;
46607;SDS011;32330;51.936;7.184;2022-11-20T17:45:01;34.90;;;23.40;;
46607;SDS011;32330;51.936;7.184;2022-11-20T17:47:30;30.23;;;22.67;;
46607;SDS011;32330;51.936;7.184;2022-11-20T17:49:57;31.92;;;22.15;;
46607;SDS011;32330;51.936;7.184;2022-11-20T17:52:24;29.00;;;20.95;;
46607;SDS011;32330;51.936;7.184;2022-11-20T17:54:51;36.00;;;23.92;;
46607;SDS011;32330;51.936;7.184;2022-11-20T17:57:20;31.38;;;22.00;;
46607;SDS011;32330;51.936;7.184;2022-11-20T18:00:05;29.25;;;21.83;;
46607;SDS011;32330;51.936;7.184;2022-11-20T18:02:35;27.63;;;20.77;;
46607;SDS011;32330;51.936;7.184;2022-11-20T18:05:02;29.55;;;23.23;;
46607;SDS011;32330;51.936;7.184;2022-11-20T18:07:30;31.25;;;21.40;;
46607;SDS011;32330;51.936;7.184;2022-11-20T18:09:57;30.25;;;22.25;;
46607;SDS011;32330;51.936;7.184;2022-11-20T18:12:24;30.30;;;22.80;;
46607;SDS011;32330;51.936;7.184;2022-11-20T18:14:51;36.30;;;25.30;;
46607;SDS011;32330;51.936;7.184;2022-11-20T18:17:17;33.15;;;23.52;;